Terminal Aerodrome Forecast
Issued by NWS

Home | Current Version | Previous Version | Text Only | Print | Product List | Glossary On
Versions: 1 2 3 4 5 6 7 8 9 10 11 12 13 14 15 16 17 18 19 20 21 22 23 24 25 26
000
FTUS41 KBOX 272321
TAFBAF
TAF
KBAF 272321Z 2800/2824 20004KT P6SM SCT200
     FM280400 21005KT P6SM BKN080
     FM281200 23004KT 6SM -SHRA OVC040
     FM281600 27006KT P6SM OVC070
     FM281800 29007KT P6SM OVC030
     FM281900 29007KT P6SM OVC080=

USA.gov is the U.S. government's official web portal to all federal, state and local government web resources and services.